createdAt,value
2019-05-21T00:00:40.002Z,22.89
2019-05-21T00:03:13.439Z,22.89
2019-05-21T00:05:46.870Z,22.89
2019-05-21T00:08:20.414Z,22.86
2019-05-21T00:10:53.710Z,22.87
2019-05-21T00:13:27.046Z,22.87
2019-05-21T00:16:00.380Z,22.87
2019-05-21T00:18:33.740Z,22.85
2019-05-21T00:21:07.081Z,22.85
2019-05-21T00:23:40.409Z,22.84
2019-05-21T00:26:13.782Z,22.83
2019-05-21T00:29:23.949Z,22.81
2019-05-21T00:32:35.016Z,23.03
2019-05-21T00:35:44.783Z,22.91
2019-05-21T00:38:54.942Z,22.85
2019-05-21T00:42:00.108Z,22.79
2019-05-21T00:44:41.140Z,22.72
2019-05-21T00:47:14.533Z,22.72
2019-05-21T00:49:47.841Z,22.71
2019-05-21T00:52:21.182Z,22.73
2019-05-21T00:54:54.523Z,22.93
2019-05-21T00:57:29.401Z,22.83
2019-05-21T01:00:04.242Z,22.78
2019-05-21T01:02:37.685Z,22.79
2019-05-21T01:05:10.997Z,22.78
2019-05-21T01:07:44.330Z,22.77
2019-05-21T01:10:17.668Z,22.76
2019-05-21T01:12:51.014Z,22.76
2019-05-21T01:15:24.320Z,22.78
2019-05-21T01:17:57.684Z,22.76
2019-05-21T01:20:30.986Z,22.76
2019-05-21T01:23:04.347Z,22.72
2019-05-21T01:25:37.669Z,22.73
2019-05-21T01:28:11.007Z,22.92
2019-05-21T01:30:44.312Z,22.80
2019-05-21T01:33:18.633Z,22.78
2019-05-21T01:35:52.615Z,22.74
2019-05-21T01:38:25.960Z,22.74
2019-05-21T01:40:59.269Z,22.74
2019-05-21T01:43:32.609Z,22.74
2019-05-21T01:46:05.925Z,22.72
2019-05-21T01:48:39.273Z,22.69
2019-05-21T01:51:12.611Z,22.67
2019-05-21T01:53:45.831Z,22.68
2019-05-21T01:56:19.142Z,22.70
2019-05-21T01:58:52.305Z,22.70
2019-05-21T02:01:25.625Z,22.68
2019-05-21T02:03:59.008Z,22.66
2019-05-21T02:06:33.408Z,22.68
2019-05-21T02:09:07.361Z,22.67
2019-05-21T02:11:40.676Z,22.68
2019-05-21T02:14:14.012Z,22.62
2019-05-21T02:16:47.347Z,22.62
2019-05-21T02:19:20.691Z,22.63
2019-05-21T02:21:54.001Z,22.97
2019-05-21T02:24:27.345Z,22.77
2019-05-21T02:27:00.684Z,23.03
2019-05-21T02:29:34.053Z,22.88
2019-05-21T02:32:07.450Z,22.84
2019-05-21T02:34:40.795Z,22.77
2019-05-21T02:37:14.880Z,22.73
2019-05-21T02:39:48.239Z,22.81
2019-05-21T02:42:21.731Z,22.70
2019-05-21T02:44:55.068Z,22.66
2019-05-21T02:47:28.923Z,22.67
2019-05-21T02:50:03.129Z,22.64
2019-05-21T02:52:36.449Z,22.63
2019-05-21T02:55:09.830Z,22.64
2019-05-21T02:57:43.153Z,22.61
2019-05-21T03:00:17.136Z,22.60
2019-05-21T03:02:50.447Z,22.59
2019-05-21T03:05:23.811Z,22.61
2019-05-21T03:07:57.139Z,22.55
2019-05-21T03:10:30.496Z,22.56
2019-05-21T03:13:04.976Z,22.56
2019-05-21T03:15:38.393Z,22.57
2019-05-21T03:18:11.697Z,22.54
2019-05-21T03:20:45.039Z,22.55
2019-05-21T03:23:18.364Z,22.56
2019-05-21T03:25:51.729Z,22.53
2019-05-21T03:28:25.058Z,22.55
2019-05-21T03:30:58.400Z,22.67
2019-05-21T03:33:31.742Z,22.58
2019-05-21T03:36:06.134Z,22.55
2019-05-21T03:38:39.625Z,22.51
2019-05-21T03:41:12.999Z,22.50
2019-05-21T03:43:46.313Z,22.47
2019-05-21T03:46:19.676Z,22.49
2019-05-21T03:48:52.981Z,22.48
2019-05-21T03:51:26.321Z,22.49
2019-05-21T03:54:00.703Z,22.47
2019-05-21T03:56:34.011Z,22.48
2019-05-21T03:59:07.345Z,22.47
2019-05-21T04:01:40.802Z,22.64
2019-05-21T04:04:14.118Z,22.54
2019-05-21T04:06:51.800Z,22.49
2019-05-21T04:09:22.528Z,22.49
2019-05-21T04:11:55.831Z,22.47
2019-05-21T04:14:29.348Z,22.44
2019-05-21T04:17:02.670Z,22.61
2019-05-21T04:19:36.021Z,22.47
2019-05-21T04:22:12.647Z,22.44
2019-05-21T04:24:45.996Z,22.42
2019-05-21T04:27:20.937Z,22.42
2019-05-21T04:29:54.494Z,22.43
2019-05-21T04:32:27.812Z,22.69
2019-05-21T04:35:01.142Z,22.52
2019-05-21T04:37:34.470Z,22.51
2019-05-21T04:40:07.956Z,22.72
2019-05-21T04:42:41.291Z,22.74
2019-05-21T04:45:14.594Z,22.99
2019-05-21T04:47:48.168Z,22.95
2019-05-21T04:50:22.591Z,23.00
2019-05-21T04:52:55.785Z,23.03
2019-05-21T04:55:29.177Z,23.02
2019-05-21T04:58:02.676Z,22.51
2019-05-21T05:00:37.589Z,23.35
2019-05-21T05:03:10.901Z,23.21
2019-05-21T05:05:44.404Z,23.54
2019-05-21T05:08:17.745Z,23.32
2019-05-21T05:10:51.085Z,23.29
2019-05-21T05:13:24.401Z,23.22
2019-05-21T05:15:57.765Z,23.19
2019-05-21T05:18:31.216Z,23.12
2019-05-21T05:21:04.669Z,22.99
2019-05-21T05:23:38.004Z,23.31
2019-05-21T05:26:11.316Z,23.25
2019-05-21T05:28:44.712Z,23.28
2019-05-21T05:31:18.067Z,23.25
2019-05-21T05:33:52.475Z,23.25
2019-05-21T05:36:25.835Z,23.53
2019-05-21T05:38:59.128Z,23.29
2019-05-21T05:41:32.505Z,23.31
2019-05-21T05:44:05.823Z,23.35
2019-05-21T05:46:39.228Z,23.27
2019-05-21T05:49:12.739Z,23.36
2019-05-21T05:51:46.275Z,23.26
2019-05-21T05:54:19.618Z,23.28
2019-05-21T05:56:53.035Z,23.22
2019-05-21T05:59:26.432Z,23.38
2019-05-21T06:02:00.837Z,23.31
2019-05-21T06:04:34.144Z,23.47
2019-05-21T06:07:07.323Z,23.38
2019-05-21T06:09:40.630Z,23.28
2019-05-21T06:12:14.172Z,23.37
2019-05-21T06:14:47.563Z,23.39
2019-05-21T06:17:20.983Z,23.31
2019-05-21T06:19:55.377Z,23.27
2019-05-21T06:22:28.773Z,23.24
2019-05-21T06:25:02.258Z,23.22
2019-05-21T06:27:35.752Z,23.22
2019-05-21T06:30:09.075Z,23.16
2019-05-21T06:32:42.389Z,23.21
2019-05-21T06:35:15.690Z,23.30
2019-05-21T06:37:49.121Z,23.27
2019-05-21T06:40:22.688Z,23.29
2019-05-21T06:42:56.020Z,23.30
2019-05-21T06:45:30.432Z,23.51
2019-05-21T06:48:03.720Z,23.42
2019-05-21T06:50:37.716Z,23.61
2019-05-21T06:53:11.294Z,23.36
2019-05-21T06:55:44.681Z,23.33
2019-05-21T06:58:18.008Z,23.33
2019-05-21T07:00:51.340Z,23.37
2019-05-21T07:03:24.678Z,23.33
2019-05-21T07:05:59.434Z,23.65
2019-05-21T07:08:35.335Z,23.37
2019-05-21T07:11:10.395Z,23.40
2019-05-21T07:13:43.843Z,23.41
2019-05-21T07:16:17.173Z,23.33
2019-05-21T07:18:50.474Z,23.37
2019-05-21T07:21:23.831Z,23.71
2019-05-21T07:23:57.201Z,23.51
2019-05-21T07:26:30.568Z,23.41
2019-05-21T07:29:03.889Z,23.39
2019-05-21T07:31:38.309Z,23.31
2019-05-21T07:34:11.625Z,23.32
2019-05-21T07:36:44.976Z,23.64
2019-05-21T07:39:18.306Z,23.23
2019-05-21T07:41:51.652Z,23.41
2019-05-21T07:44:25.174Z,23.42
2019-05-21T07:46:58.513Z,23.38
2019-05-21T07:49:31.833Z,23.37
2019-05-21T07:52:05.187Z,23.37
2019-05-21T07:54:38.481Z,23.34
2019-05-21T07:57:11.827Z,23.34
2019-05-21T07:59:45.129Z,23.32
2019-05-21T08:02:18.498Z,23.28
2019-05-21T08:04:52.908Z,23.29
2019-05-21T08:07:26.256Z,23.26
2019-05-21T08:09:59.576Z,23.25
2019-05-21T08:12:38.749Z,23.23
2019-05-21T08:15:07.984Z,23.25
2019-05-21T08:17:41.357Z,23.09
2019-05-21T08:20:16.313Z,23.46
2019-05-21T08:22:49.710Z,23.32
2019-05-21T08:25:23.037Z,23.25
2019-05-21T08:27:56.206Z,23.25
2019-05-21T08:30:29.514Z,23.19
2019-05-21T08:33:02.878Z,23.30
2019-05-21T08:35:36.271Z,23.24
2019-05-21T08:38:09.628Z,23.21
2019-05-21T08:40:42.942Z,23.18
2019-05-21T08:43:16.286Z,23.21
2019-05-21T08:45:49.594Z,23.20
2019-05-21T08:48:23.572Z,23.18
2019-05-21T08:50:56.862Z,23.14
2019-05-21T08:53:30.243Z,23.16
2019-05-21T08:56:03.526Z,23.16
2019-05-21T08:58:36.855Z,23.14
2019-05-21T09:01:10.274Z,23.13
2019-05-21T09:03:43.658Z,23.12
2019-05-21T09:06:16.955Z,23.08
2019-05-21T09:08:50.278Z,23.09
2019-05-21T09:11:23.733Z,23.08
2019-05-21T09:13:57.110Z,23.07
2019-05-21T09:16:30.792Z,23.06
2019-05-21T09:19:04.215Z,23.07
2019-05-21T09:21:37.531Z,23.09
2019-05-21T09:24:10.896Z,23.05
2019-05-21T09:26:44.242Z,23.06
2019-05-21T09:29:17.589Z,23.07
2019-05-21T09:31:50.979Z,23.03
2019-05-21T09:34:24.326Z,23.02
2019-05-21T09:36:57.687Z,23.04
2019-05-21T09:39:31.214Z,23.03
2019-05-21T09:42:04.545Z,23.00
2019-05-21T09:44:37.897Z,23.01
2019-05-21T09:47:11.199Z,23.10
2019-05-21T09:49:44.574Z,23.04
2019-05-21T09:52:17.883Z,23.09
2019-05-21T09:54:51.445Z,23.14
2019-05-21T09:57:24.759Z,23.22
2019-05-21T09:59:58.090Z,23.32
2019-05-21T10:02:33.004Z,23.38
2019-05-21T10:05:06.376Z,23.51
2019-05-21T10:07:40.773Z,23.63
2019-05-21T10:10:14.342Z,23.74
2019-05-21T10:12:47.664Z,23.89
2019-05-21T10:15:21.026Z,24.08
2019-05-21T10:17:54.592Z,24.26
2019-05-21T10:20:27.790Z,24.43
2019-05-21T10:23:01.431Z,24.61
2019-05-21T10:25:35.005Z,24.77
2019-05-21T10:28:08.310Z,24.95
2019-05-21T10:30:41.647Z,25.38
2019-05-21T10:33:14.958Z,25.34
2019-05-21T10:35:48.300Z,25.45
2019-05-21T10:38:21.619Z,25.55
2019-05-21T10:40:54.949Z,25.65
2019-05-21T10:43:28.315Z,25.91
2019-05-21T10:46:01.678Z,25.93
2019-05-21T10:48:36.163Z,26.01
2019-05-21T10:51:09.802Z,26.24
2019-05-21T10:53:43.273Z,26.24
2019-05-21T10:56:16.637Z,26.28
2019-05-21T10:58:49.958Z,26.31
2019-05-21T11:01:23.305Z,26.31
2019-05-21T11:03:56.699Z,26.42
2019-05-21T11:06:30.244Z,26.41
2019-05-21T11:09:05.715Z,26.38
2019-05-21T11:11:39.433Z,26.40
2019-05-21T11:14:13.036Z,26.40
2019-05-21T11:16:46.389Z,26.38
2019-05-21T11:19:19.701Z,26.38
2019-05-21T11:21:53.047Z,26.38
2019-05-21T11:24:26.336Z,26.36
2019-05-21T11:27:04.614Z,26.36
2019-05-21T11:29:37.896Z,26.34
2019-05-21T11:32:11.220Z,26.34
2019-05-21T11:34:44.517Z,26.32
2019-05-21T11:37:17.943Z,26.29
2019-05-21T11:39:51.306Z,26.55
2019-05-21T11:42:24.683Z,26.39
2019-05-21T11:44:58.021Z,26.35
2019-05-21T11:47:31.314Z,26.59
2019-05-21T11:50:07.853Z,26.40
2019-05-21T11:52:41.165Z,26.33
2019-05-21T11:55:14.494Z,26.72
2019-05-21T11:57:47.797Z,26.44
2019-05-21T12:00:21.825Z,26.35
2019-05-21T12:02:55.249Z,26.32
2019-05-21T12:05:28.561Z,26.24
2019-05-21T12:08:01.861Z,26.21
2019-05-21T12:10:35.210Z,26.21
2019-05-21T12:13:08.606Z,26.16
2019-05-21T12:15:41.988Z,26.12
2019-05-21T12:18:16.382Z,26.09
2019-05-21T12:20:49.725Z,26.08
2019-05-21T12:23:23.031Z,26.45
2019-05-21T12:25:56.360Z,26.21
2019-05-21T12:28:29.687Z,26.11
2019-05-21T12:31:03.038Z,26.05
2019-05-21T12:33:36.389Z,26.01
2019-05-21T12:36:09.746Z,25.96
2019-05-21T12:38:43.059Z,25.93
2019-05-21T12:41:16.386Z,25.94
2019-05-21T12:43:49.685Z,25.90
2019-05-21T12:46:23.050Z,25.86
2019-05-21T12:48:56.576Z,26.04
2019-05-21T12:51:29.912Z,25.90
2019-05-21T12:54:03.249Z,25.81
2019-05-21T12:56:40.446Z,25.85
2019-05-21T12:59:11.669Z,25.84
2019-05-21T13:01:45.403Z,25.99
2019-05-21T13:04:18.730Z,25.84
2019-05-21T13:06:52.121Z,25.77
2019-05-21T13:09:32.738Z,25.73
2019-05-21T13:12:00.561Z,25.72
2019-05-21T13:14:33.948Z,25.68
2019-05-21T13:17:07.496Z,25.66
2019-05-21T13:19:41.043Z,25.63
2019-05-21T13:22:14.408Z,25.55
2019-05-21T13:24:47.820Z,25.55
2019-05-21T13:27:21.347Z,25.51
2019-05-21T13:29:54.704Z,25.44
2019-05-21T13:32:29.106Z,25.42
2019-05-21T13:35:03.390Z,25.43
2019-05-21T13:37:37.248Z,25.41
2019-05-21T13:40:10.586Z,25.38
2019-05-21T13:42:44.078Z,25.69
2019-05-21T13:45:18.293Z,24.99
2019-05-21T13:47:51.687Z,25.36
2019-05-21T13:50:26.027Z,25.33
2019-05-21T13:53:01.021Z,25.31
2019-05-21T13:55:34.364Z,25.41
2019-05-21T13:58:07.813Z,25.28
2019-05-21T14:00:41.162Z,25.26
2019-05-21T14:03:14.582Z,25.19
2019-05-21T14:05:47.909Z,25.19
2019-05-21T14:08:21.238Z,25.17
2019-05-21T14:10:55.633Z,25.15
2019-05-21T14:13:28.954Z,25.15
2019-05-21T14:16:02.614Z,25.15
2019-05-21T14:18:36.316Z,25.15
2019-05-21T14:21:09.672Z,25.07
2019-05-21T14:23:42.895Z,25.04
2019-05-21T14:26:16.291Z,25.03
2019-05-21T14:28:49.624Z,24.99
2019-05-21T14:31:22.972Z,24.93
2019-05-21T14:33:56.267Z,24.98
2019-05-21T14:36:29.607Z,24.93
2019-05-21T14:39:06.484Z,25.17
2019-05-21T14:41:40.013Z,24.99
2019-05-21T14:44:13.332Z,24.95
2019-05-21T14:46:46.685Z,24.92
2019-05-21T14:49:20.077Z,24.87
2019-05-21T14:51:55.030Z,24.43
2019-05-21T14:54:28.359Z,24.80
2019-05-21T14:57:01.714Z,24.72
2019-05-21T14:59:34.991Z,24.75
2019-05-21T15:02:08.671Z,24.72
2019-05-21T15:04:42.268Z,24.71
2019-05-21T15:07:16.376Z,24.68
2019-05-21T15:09:53.333Z,24.66
2019-05-21T15:12:24.770Z,24.62
2019-05-21T15:14:58.069Z,24.63
2019-05-21T15:17:31.420Z,24.56
2019-05-21T15:20:07.283Z,24.59
2019-05-21T15:22:40.603Z,24.62
2019-05-21T15:25:13.910Z,24.59
2019-05-21T15:27:47.294Z,24.56
2019-05-21T15:30:20.559Z,24.52
2019-05-21T15:32:54.074Z,24.59
2019-05-21T15:35:27.396Z,24.59
2019-05-21T15:38:01.509Z,24.60
2019-05-21T15:40:34.923Z,24.60
2019-05-21T15:43:08.293Z,24.57
2019-05-21T15:45:41.576Z,24.55
2019-05-21T15:48:14.926Z,24.53
2019-05-21T15:50:48.231Z,24.51
2019-05-21T15:53:21.602Z,24.49
2019-05-21T15:55:56.490Z,24.02
2019-05-21T15:58:29.823Z,24.45
2019-05-21T16:01:03.134Z,24.50
2019-05-21T16:03:36.474Z,24.48
2019-05-21T16:06:09.795Z,24.47
2019-05-21T16:08:43.164Z,24.45
2019-05-21T16:11:28.056Z,24.44
2019-05-21T16:13:51.471Z,24.39
2019-05-21T16:16:24.802Z,24.42
2019-05-21T16:18:58.251Z,24.34
2019-05-21T16:21:31.613Z,24.39
2019-05-21T16:24:04.944Z,24.36
2019-05-21T16:26:38.315Z,24.29
2019-05-21T16:29:11.626Z,24.34
2019-05-21T16:31:44.984Z,24.35
2019-05-21T16:34:18.472Z,24.32
2019-05-21T16:36:52.213Z,24.34
2019-05-21T16:39:25.341Z,24.31
2019-05-21T16:41:58.864Z,24.29
2019-05-21T16:44:32.252Z,24.30
2019-05-21T16:47:05.712Z,24.29
2019-05-21T16:49:39.044Z,24.25
2019-05-21T16:52:12.741Z,24.49
2019-05-21T16:54:46.146Z,24.37
2019-05-21T16:57:19.559Z,24.36
2019-05-21T16:59:52.932Z,24.32
2019-05-21T17:02:26.288Z,24.34
2019-05-21T17:04:59.623Z,24.50
2019-05-21T17:07:33.552Z,24.38
2019-05-21T17:10:06.942Z,24.39
2019-05-21T17:12:40.287Z,24.66
2019-05-21T17:15:13.620Z,24.46
2019-05-21T17:17:46.964Z,24.38
2019-05-21T17:20:20.285Z,24.47
2019-05-21T17:22:53.632Z,24.50
2019-05-21T17:25:27.118Z,24.59
2019-05-21T17:28:00.502Z,24.49
2019-05-21T17:30:35.017Z,24.49
2019-05-21T17:33:08.438Z,24.48
2019-05-21T17:35:41.755Z,24.46
2019-05-21T17:38:15.186Z,24.43
2019-05-21T17:40:48.520Z,24.41
2019-05-21T17:43:21.914Z,24.44
2019-05-21T17:45:55.320Z,24.47
2019-05-21T17:48:28.782Z,24.43
2019-05-21T17:51:02.107Z,24.39
2019-05-21T17:53:35.525Z,24.39
2019-05-21T17:56:08.859Z,24.35
2019-05-21T17:58:43.824Z,24.36
2019-05-21T18:01:17.216Z,24.37
2019-05-21T18:03:50.605Z,24.62
2019-05-21T18:06:23.917Z,24.43
2019-05-21T18:08:57.354Z,24.42
2019-05-21T18:11:30.670Z,24.37
2019-05-21T18:14:04.011Z,24.31
2019-05-21T18:16:37.878Z,24.50
2019-05-21T18:19:11.516Z,24.34
2019-05-21T18:21:44.932Z,24.27
2019-05-21T18:24:18.265Z,24.53
2019-05-21T18:26:51.622Z,24.34
2019-05-21T18:29:26.024Z,24.28
2019-05-21T18:31:59.372Z,24.22
2019-05-21T18:34:32.774Z,24.21
2019-05-21T18:37:06.240Z,24.14
2019-05-21T18:39:42.332Z,24.08
2019-05-21T18:42:22.267Z,24.03
2019-05-21T18:44:50.798Z,24.06
2019-05-21T18:47:24.120Z,24.03
2019-05-21T18:49:57.436Z,24.02
2019-05-21T18:52:30.769Z,24.01
2019-05-21T18:55:05.639Z,24.00
2019-05-21T18:57:39.050Z,24.01
2019-05-21T19:00:12.716Z,23.95
2019-05-21T19:02:46.082Z,23.93
2019-05-21T19:05:19.489Z,23.92
2019-05-21T19:07:53.155Z,23.92
2019-05-21T19:10:26.685Z,23.91
2019-05-21T19:13:02.935Z,23.91
2019-05-21T19:15:36.478Z,23.91
2019-05-21T19:18:09.809Z,23.91
2019-05-21T19:20:43.115Z,23.90
2019-05-21T19:23:16.535Z,23.90
2019-05-21T19:25:49.901Z,23.92
2019-05-21T19:28:23.252Z,24.18
2019-05-21T19:30:56.557Z,24.00
2019-05-21T19:33:29.892Z,23.96
2019-05-21T19:36:03.208Z,23.96
2019-05-21T19:38:37.345Z,23.93
2019-05-21T19:41:10.805Z,23.93
2019-05-21T19:43:44.349Z,23.90
2019-05-21T19:46:17.650Z,23.87
2019-05-21T19:48:51.017Z,23.84
2019-05-21T19:51:24.345Z,23.84
2019-05-21T19:53:57.628Z,23.89
2019-05-21T19:56:31.071Z,24.24
2019-05-21T19:59:04.617Z,24.05
2019-05-21T20:01:38.413Z,24.03
2019-05-21T20:04:11.725Z,23.98
2019-05-21T20:06:45.151Z,23.85
2019-05-21T20:09:18.520Z,23.92
2019-05-21T20:11:52.090Z,23.93
2019-05-21T20:14:25.406Z,23.99
2019-05-21T20:16:58.918Z,23.99
2019-05-21T20:19:32.369Z,23.94
2019-05-21T20:22:05.709Z,23.94
2019-05-21T20:24:39.993Z,23.94
2019-05-21T20:27:13.414Z,23.89
2019-05-21T20:29:47.066Z,23.93
2019-05-21T20:32:20.401Z,23.98
2019-05-21T20:34:53.698Z,23.94
2019-05-21T20:37:27.331Z,24.29
2019-05-21T20:40:01.776Z,24.03
2019-05-21T20:42:36.137Z,24.02
2019-05-21T20:45:09.894Z,24.30
2019-05-21T20:47:43.229Z,24.10
2019-05-21T20:50:16.531Z,24.17
2019-05-21T20:52:49.911Z,24.02
2019-05-21T20:55:23.240Z,23.92
2019-05-21T20:57:56.847Z,23.92
2019-05-21T21:00:30.348Z,23.86
2019-05-21T21:03:03.744Z,23.77
2019-05-21T21:05:37.066Z,23.78
2019-05-21T21:08:10.776Z,23.76
2019-05-21T21:10:44.158Z,23.79
2019-05-21T21:13:17.490Z,23.77
2019-05-21T21:15:50.863Z,23.75
2019-05-21T21:18:25.925Z,23.98
2019-05-21T21:20:59.239Z,23.74
2019-05-21T21:23:32.592Z,23.61
2019-05-21T21:26:05.891Z,23.78
2019-05-21T21:28:39.426Z,23.65
2019-05-21T21:31:12.727Z,23.64
2019-05-21T21:33:46.079Z,23.56
2019-05-21T21:36:19.380Z,23.52
2019-05-21T21:38:52.984Z,23.45
2019-05-21T21:41:26.465Z,23.44
2019-05-21T21:44:00.443Z,23.40
2019-05-21T21:46:33.782Z,23.71
2019-05-21T21:49:07.113Z,23.46
2019-05-21T21:51:40.448Z,23.43
2019-05-21T21:54:14.818Z,23.64
2019-05-21T21:56:48.342Z,23.49
2019-05-21T21:59:21.646Z,23.42
2019-05-21T22:02:07.434Z,23.37
2019-05-21T22:04:40.908Z,23.31
2019-05-21T22:07:14.209Z,23.31
2019-05-21T22:09:47.610Z,23.27
2019-05-21T22:12:20.924Z,23.26
2019-05-21T22:14:56.502Z,23.24
2019-05-21T22:17:29.839Z,23.22
2019-05-21T22:20:05.751Z,23.20
2019-05-21T22:22:39.063Z,23.20
2019-05-21T22:25:12.421Z,23.20
2019-05-21T22:27:45.733Z,23.19
2019-05-21T22:30:19.082Z,23.18
2019-05-21T22:32:53.471Z,23.12
2019-05-21T22:35:26.809Z,23.25
2019-05-21T22:38:00.117Z,23.14
2019-05-21T22:40:33.436Z,23.10
2019-05-21T22:43:06.773Z,23.10
2019-05-21T22:45:40.154Z,23.09
2019-05-21T22:48:13.480Z,23.09
2019-05-21T22:50:46.821Z,23.07
2019-05-21T22:53:20.164Z,23.03
2019-05-21T22:55:53.514Z,23.02
2019-05-21T22:58:26.814Z,23.00
2019-05-21T23:01:01.761Z,22.98
2019-05-21T23:03:35.066Z,23.18
2019-05-21T23:06:08.387Z,23.03
2019-05-21T23:08:41.725Z,23.00
2019-05-21T23:11:15.063Z,22.98
2019-05-21T23:13:48.540Z,22.97
2019-05-21T23:16:22.348Z,22.96
2019-05-21T23:19:13.873Z,22.94
2019-05-21T23:21:48.833Z,22.92
2019-05-21T23:24:22.145Z,23.20
2019-05-21T23:26:55.501Z,23.05
2019-05-21T23:29:29.979Z,22.97
2019-05-21T23:32:03.341Z,22.98
2019-05-21T23:34:36.654Z,22.95
2019-05-21T23:37:11.152Z,22.94
2019-05-21T23:39:44.677Z,22.89
2019-05-21T23:42:28.941Z,22.88
2019-05-21T23:44:53.157Z,22.86
2019-05-21T23:47:26.562Z,22.83
2019-05-21T23:49:59.885Z,22.83
2019-05-21T23:52:37.023Z,22.80
2019-05-21T23:55:10.408Z,22.81
2019-05-21T23:57:44.153Z,22.80
